sensor_id;sensor_type;location;lat;lon;timestamp;temperature;humidity
11577;DHT22;5844;51.496;6.788;2023-02-17T00:00:05;11.00;99.90
11577;DHT22;5844;51.496;6.788;2023-02-17T00:02:33;11.00;99.90
11577;DHT22;5844;51.496;6.788;2023-02-17T00:04:58;11.10;99.90
11577;DHT22;5844;51.496;6.788;2023-02-17T00:07:24;11.10;99.90
11577;DHT22;5844;51.496;6.788;2023-02-17T00:09:50;11.10;99.90
11577;DHT22;5844;51.496;6.788;2023-02-17T00:12:15;11.10;99.90
11577;DHT22;5844;51.496;6.788;2023-02-17T00:14:41;11.10;99.90
11577;DHT22;5844;51.496;6.788;2023-02-17T00:17:06;11.20;99.90
11577;DHT22;5844;51.496;6.788;2023-02-17T00:19:32;11.20;99.90
11577;DHT22;5844;51.496;6.788;2023-02-17T00:21:59;11.10;99.90
11577;DHT22;5844;51.496;6.788;2023-02-17T00:24:27;11.10;99.90
11577;DHT22;5844;51.496;6.788;2023-02-17T00:26:53;11.10;99.90
11577;DHT22;5844;51.496;6.788;2023-02-17T00:29:19;11.10;99.90
11577;DHT22;5844;51.496;6.788;2023-02-17T00:31:45;11.20;99.90
11577;DHT22;5844;51.496;6.788;2023-02-17T00:34:11;11.20;99.90
11577;DHT22;5844;51.496;6.788;2023-02-17T00:36:38;11.20;99.90
11577;DHT22;5844;51.496;6.788;2023-02-17T00:39:05;11.20;99.90
11577;DHT22;5844;51.496;6.788;2023-02-17T00:41:31;11.20;99.90
11577;DHT22;5844;51.496;6.788;2023-02-17T00:43:57;11.20;99.90
11577;DHT22;5844;51.496;6.788;2023-02-17T00:46:24;11.20;99.90
11577;DHT22;5844;51.496;6.788;2023-02-17T00:48:50;11.10;99.90
11577;DHT22;5844;51.496;6.788;2023-02-17T00:51:16;11.10;99.90
11577;DHT22;5844;51.496;6.788;2023-02-17T00:53:42;11.10;99.90
11577;DHT22;5844;51.496;6.788;2023-02-17T00:56:08;11.10;99.90
11577;DHT22;5844;51.496;6.788;2023-02-17T00:58:35;11.10;99.90
11577;DHT22;5844;51.496;6.788;2023-02-17T01:01:00;11.00;99.90
11577;DHT22;5844;51.496;6.788;2023-02-17T01:03:27;11.00;99.90
11577;DHT22;5844;51.496;6.788;2023-02-17T01:05:53;11.00;99.90
11577;DHT22;5844;51.496;6.788;2023-02-17T01:08:19;10.90;99.90
11577;DHT22;5844;51.496;6.788;2023-02-17T01:10:47;10.90;99.90
11577;DHT22;5844;51.496;6.788;2023-02-17T01:13:14;10.90;99.90
11577;DHT22;5844;51.496;6.788;2023-02-17T01:15:42;10.90;99.90
11577;DHT22;5844;51.496;6.788;2023-02-17T01:18:08;11.00;99.90
11577;DHT22;5844;51.496;6.788;2023-02-17T01:20:35;11.00;99.90
11577;DHT22;5844;51.496;6.788;2023-02-17T01:23:01;11.00;99.90
11577;DHT22;5844;51.496;6.788;2023-02-17T01:25:27;11.00;99.90
11577;DHT22;5844;51.496;6.788;2023-02-17T01:27:53;11.00;99.90
11577;DHT22;5844;51.496;6.788;2023-02-17T01:30:19;10.90;99.90
11577;DHT22;5844;51.496;6.788;2023-02-17T01:32:45;10.90;99.90
11577;DHT22;5844;51.496;6.788;2023-02-17T01:35:11;10.90;99.90
11577;DHT22;5844;51.496;6.788;2023-02-17T01:37:37;10.80;99.90
11577;DHT22;5844;51.496;6.788;2023-02-17T01:40:04;10.80;99.90
11577;DHT22;5844;51.496;6.788;2023-02-17T01:42:29;10.80;99.90
11577;DHT22;5844;51.496;6.788;2023-02-17T01:47:45;10.80;99.90
11577;DHT22;5844;51.496;6.788;2023-02-17T01:50:13;10.80;99.90
11577;DHT22;5844;51.496;6.788;2023-02-17T01:52:40;10.80;99.90
11577;DHT22;5844;51.496;6.788;2023-02-17T01:55:11;10.90;99.90
11577;DHT22;5844;51.496;6.788;2023-02-17T01:57:39;10.90;99.90
11577;DHT22;5844;51.496;6.788;2023-02-17T02:00:09;10.90;99.90
11577;DHT22;5844;51.496;6.788;2023-02-17T02:02:36;11.50;99.90
11577;DHT22;5844;51.496;6.788;2023-02-17T02:05:02;10.90;99.90
11577;DHT22;5844;51.496;6.788;2023-02-17T02:07:35;10.90;99.90
11577;DHT22;5844;51.496;6.788;2023-02-17T02:10:02;10.90;99.90
11577;DHT22;5844;51.496;6.788;2023-02-17T02:12:32;10.90;99.90
11577;DHT22;5844;51.496;6.788;2023-02-17T02:15:00;10.90;99.90
11577;DHT22;5844;51.496;6.788;2023-02-17T02:23:19;10.90;99.90
11577;DHT22;5844;51.496;6.788;2023-02-17T02:34:19;10.90;99.90
11577;DHT22;5844;51.496;6.788;2023-02-17T02:39:20;11.00;99.90
11577;DHT22;5844;51.496;6.788;2023-02-17T02:42:01;11.00;99.90
11577;DHT22;5844;51.496;6.788;2023-02-17T02:44:29;11.10;99.90
11577;DHT22;5844;51.496;6.788;2023-02-17T02:47:02;11.10;99.90
11577;DHT22;5844;51.496;6.788;2023-02-17T02:49:28;11.20;99.90
11577;DHT22;5844;51.496;6.788;2023-02-17T02:52:09;11.10;99.90
11577;DHT22;5844;51.496;6.788;2023-02-17T03:00:19;11.20;99.90
11577;DHT22;5844;51.496;6.788;2023-02-17T03:02:57;11.30;99.90
11577;DHT22;5844;51.496;6.788;2023-02-17T03:10:31;11.40;99.90
11577;DHT22;5844;51.496;6.788;2023-02-17T03:12:57;11.40;99.90
11577;DHT22;5844;51.496;6.788;2023-02-17T03:15:29;11.50;99.90
11577;DHT22;5844;51.496;6.788;2023-02-17T03:17:59;11.40;99.90
11577;DHT22;5844;51.496;6.788;2023-02-17T03:20:29;11.50;99.90
11577;DHT22;5844;51.496;6.788;2023-02-17T03:22:56;11.50;99.90
11577;DHT22;5844;51.496;6.788;2023-02-17T03:25:22;11.50;99.90
11577;DHT22;5844;51.496;6.788;2023-02-17T03:27:48;11.60;99.90
11577;DHT22;5844;51.496;6.788;2023-02-17T03:30:13;11.50;99.90
11577;DHT22;5844;51.496;6.788;2023-02-17T03:32:40;11.50;99.90
11577;DHT22;5844;51.496;6.788;2023-02-17T03:35:06;11.50;99.90
11577;DHT22;5844;51.496;6.788;2023-02-17T03:37:31;11.50;99.90
11577;DHT22;5844;51.496;6.788;2023-02-17T03:39:57;11.50;99.90
11577;DHT22;5844;51.496;6.788;2023-02-17T03:42:23;11.50;99.90
11577;DHT22;5844;51.496;6.788;2023-02-17T03:44:48;11.50;99.90
11577;DHT22;5844;51.496;6.788;2023-02-17T03:47:14;11.50;99.90
11577;DHT22;5844;51.496;6.788;2023-02-17T03:49:39;11.50;99.90
11577;DHT22;5844;51.496;6.788;2023-02-17T03:52:05;11.50;99.90
11577;DHT22;5844;51.496;6.788;2023-02-17T03:54:31;11.60;99.90
11577;DHT22;5844;51.496;6.788;2023-02-17T03:56:56;11.60;99.90
11577;DHT22;5844;51.496;6.788;2023-02-17T03:59:23;11.50;99.90
11577;DHT22;5844;51.496;6.788;2023-02-17T04:01:49;11.60;99.90
11577;DHT22;5844;51.496;6.788;2023-02-17T04:04:15;11.60;99.90
11577;DHT22;5844;51.496;6.788;2023-02-17T04:06:40;11.60;99.90
11577;DHT22;5844;51.496;6.788;2023-02-17T04:09:06;11.50;99.90
11577;DHT22;5844;51.496;6.788;2023-02-17T04:11:32;11.50;99.90
11577;DHT22;5844;51.496;6.788;2023-02-17T04:13:57;11.60;99.90
11577;DHT22;5844;51.496;6.788;2023-02-17T04:16:23;11.60;99.90
11577;DHT22;5844;51.496;6.788;2023-02-17T04:18:49;11.60;99.90
11577;DHT22;5844;51.496;6.788;2023-02-17T04:21:14;11.60;99.90
11577;DHT22;5844;51.496;6.788;2023-02-17T04:23:40;11.60;99.90
11577;DHT22;5844;51.496;6.788;2023-02-17T04:26:07;11.60;99.90
11577;DHT22;5844;51.496;6.788;2023-02-17T04:28:34;11.60;99.90
11577;DHT22;5844;51.496;6.788;2023-02-17T04:31:02;11.60;99.90
11577;DHT22;5844;51.496;6.788;2023-02-17T04:33:28;11.60;99.90
11577;DHT22;5844;51.496;6.788;2023-02-17T04:35:54;11.60;99.90
11577;DHT22;5844;51.496;6.788;2023-02-17T04:38:25;11.60;99.90
11577;DHT22;5844;51.496;6.788;2023-02-17T04:40:53;11.60;99.90
11577;DHT22;5844;51.496;6.788;2023-02-17T04:43:20;11.60;99.90
11577;DHT22;5844;51.496;6.788;2023-02-17T04:45:46;11.50;99.90
11577;DHT22;5844;51.496;6.788;2023-02-17T04:48:12;11.60;99.90
11577;DHT22;5844;51.496;6.788;2023-02-17T04:50:37;11.60;99.90
11577;DHT22;5844;51.496;6.788;2023-02-17T04:53:03;11.60;99.90
11577;DHT22;5844;51.496;6.788;2023-02-17T04:55:30;11.60;99.90
11577;DHT22;5844;51.496;6.788;2023-02-17T04:57:56;11.60;99.90
11577;DHT22;5844;51.496;6.788;2023-02-17T05:00:22;11.60;99.90
11577;DHT22;5844;51.496;6.788;2023-02-17T05:02:47;11.60;99.90
11577;DHT22;5844;51.496;6.788;2023-02-17T05:05:13;11.60;99.90
11577;DHT22;5844;51.496;6.788;2023-02-17T05:07:46;11.60;99.90
11577;DHT22;5844;51.496;6.788;2023-02-17T05:10:13;11.60;99.90
11577;DHT22;5844;51.496;6.788;2023-02-17T05:12:39;11.60;99.90
11577;DHT22;5844;51.496;6.788;2023-02-17T05:15:06;11.60;99.90
11577;DHT22;5844;51.496;6.788;2023-02-17T05:17:33;11.60;99.90
11577;DHT22;5844;51.496;6.788;2023-02-17T05:19:58;11.60;99.90
11577;DHT22;5844;51.496;6.788;2023-02-17T05:22:24;11.60;99.90
11577;DHT22;5844;51.496;6.788;2023-02-17T05:24:50;11.70;99.90
11577;DHT22;5844;51.496;6.788;2023-02-17T05:27:16;11.60;99.90
11577;DHT22;5844;51.496;6.788;2023-02-17T05:29:41;11.70;99.90
11577;DHT22;5844;51.496;6.788;2023-02-17T05:32:07;11.60;99.90
11577;DHT22;5844;51.496;6.788;2023-02-17T05:34:32;11.60;99.90
11577;DHT22;5844;51.496;6.788;2023-02-17T05:36:58;11.60;99.90
11577;DHT22;5844;51.496;6.788;2023-02-17T05:39:24;11.60;99.90
11577;DHT22;5844;51.496;6.788;2023-02-17T05:41:49;11.60;99.90
11577;DHT22;5844;51.496;6.788;2023-02-17T05:44:15;11.60;99.90
11577;DHT22;5844;51.496;6.788;2023-02-17T05:46:41;11.60;99.90
11577;DHT22;5844;51.496;6.788;2023-02-17T05:49:06;11.60;99.90
11577;DHT22;5844;51.496;6.788;2023-02-17T05:51:32;11.50;99.90
11577;DHT22;5844;51.496;6.788;2023-02-17T05:53:58;11.50;99.90
11577;DHT22;5844;51.496;6.788;2023-02-17T05:56:23;11.50;99.90
11577;DHT22;5844;51.496;6.788;2023-02-17T05:58:49;11.50;99.90
11577;DHT22;5844;51.496;6.788;2023-02-17T06:01:14;11.50;99.90
11577;DHT22;5844;51.496;6.788;2023-02-17T06:03:40;11.50;99.90
11577;DHT22;5844;51.496;6.788;2023-02-17T06:06:06;11.50;99.90
11577;DHT22;5844;51.496;6.788;2023-02-17T06:08:33;11.60;99.90
11577;DHT22;5844;51.496;6.788;2023-02-17T06:10:58;11.60;99.90
11577;DHT22;5844;51.496;6.788;2023-02-17T06:13:24;11.50;99.90
11577;DHT22;5844;51.496;6.788;2023-02-17T06:15:50;11.50;99.90
11577;DHT22;5844;51.496;6.788;2023-02-17T06:18:15;11.60;99.90
11577;DHT22;5844;51.496;6.788;2023-02-17T06:20:41;11.60;99.90
11577;DHT22;5844;51.496;6.788;2023-02-17T06:23:07;11.60;99.90
11577;DHT22;5844;51.496;6.788;2023-02-17T06:25:32;11.60;99.90
11577;DHT22;5844;51.496;6.788;2023-02-17T06:27:58;11.50;99.90
11577;DHT22;5844;51.496;6.788;2023-02-17T06:30:24;11.60;99.90
11577;DHT22;5844;51.496;6.788;2023-02-17T06:32:52;11.60;99.90
11577;DHT22;5844;51.496;6.788;2023-02-17T06:35:18;11.60;99.90
11577;DHT22;5844;51.496;6.788;2023-02-17T06:37:44;11.60;99.90
11577;DHT22;5844;51.496;6.788;2023-02-17T06:40:10;11.60;99.90
11577;DHT22;5844;51.496;6.788;2023-02-17T06:42:35;11.60;99.90
11577;DHT22;5844;51.496;6.788;2023-02-17T06:45:01;11.50;99.90
11577;DHT22;5844;51.496;6.788;2023-02-17T06:47:30;11.60;99.90
11577;DHT22;5844;51.496;6.788;2023-02-17T06:49:56;11.50;99.90
11577;DHT22;5844;51.496;6.788;2023-02-17T06:52:22;11.50;99.90
11577;DHT22;5844;51.496;6.788;2023-02-17T06:54:47;11.40;99.90
11577;DHT22;5844;51.496;6.788;2023-02-17T06:57:13;11.40;99.90
11577;DHT22;5844;51.496;6.788;2023-02-17T06:59:39;11.30;99.90
11577;DHT22;5844;51.496;6.788;2023-02-17T07:02:05;11.30;99.90
11577;DHT22;5844;51.496;6.788;2023-02-17T07:04:31;11.10;99.90
11577;DHT22;5844;51.496;6.788;2023-02-17T07:06:57;11.10;99.90
11577;DHT22;5844;51.496;6.788;2023-02-17T07:09:22;11.10;99.90
11577;DHT22;5844;51.496;6.788;2023-02-17T07:11:48;11.10;99.90
11577;DHT22;5844;51.496;6.788;2023-02-17T07:14:15;11.10;99.90
11577;DHT22;5844;51.496;6.788;2023-02-17T07:16:41;11.10;99.90
11577;DHT22;5844;51.496;6.788;2023-02-17T07:19:06;11.10;99.90
11577;DHT22;5844;51.496;6.788;2023-02-17T07:21:32;11.10;99.90
11577;DHT22;5844;51.496;6.788;2023-02-17T07:23:58;11.20;99.90
11577;DHT22;5844;51.496;6.788;2023-02-17T07:26:23;11.20;99.90
11577;DHT22;5844;51.496;6.788;2023-02-17T07:28:49;11.30;99.90
11577;DHT22;5844;51.496;6.788;2023-02-17T07:31:16;11.30;99.90
11577;DHT22;5844;51.496;6.788;2023-02-17T07:33:42;11.30;99.90
11577;DHT22;5844;51.496;6.788;2023-02-17T07:36:10;11.30;99.90
11577;DHT22;5844;51.496;6.788;2023-02-17T07:38:36;11.40;99.90
11577;DHT22;5844;51.496;6.788;2023-02-17T07:41:13;11.40;99.90
11577;DHT22;5844;51.496;6.788;2023-02-17T07:43:40;11.50;99.90
11577;DHT22;5844;51.496;6.788;2023-02-17T07:46:06;11.50;99.90
11577;DHT22;5844;51.496;6.788;2023-02-17T07:48:32;11.60;99.90
11577;DHT22;5844;51.496;6.788;2023-02-17T07:51:10;11.60;99.90
11577;DHT22;5844;51.496;6.788;2023-02-17T07:53:36;11.60;99.90
11577;DHT22;5844;51.496;6.788;2023-02-17T07:56:07;11.60;99.90
11577;DHT22;5844;51.496;6.788;2023-02-17T07:58:34;11.70;99.90
11577;DHT22;5844;51.496;6.788;2023-02-17T08:01:11;11.70;99.90
11577;DHT22;5844;51.496;6.788;2023-02-17T08:03:37;11.70;99.90
11577;DHT22;5844;51.496;6.788;2023-02-17T08:06:03;11.70;99.90
11577;DHT22;5844;51.496;6.788;2023-02-17T08:08:29;11.80;99.90
11577;DHT22;5844;51.496;6.788;2023-02-17T08:11:15;11.80;99.90
11577;DHT22;5844;51.496;6.788;2023-02-17T08:14:00;11.80;99.90
11577;DHT22;5844;51.496;6.788;2023-02-17T08:16:26;11.80;99.90
11577;DHT22;5844;51.496;6.788;2023-02-17T08:18:55;11.80;99.90
11577;DHT22;5844;51.496;6.788;2023-02-17T08:21:22;11.80;99.90
11577;DHT22;5844;51.496;6.788;2023-02-17T08:23:48;11.90;99.90
11577;DHT22;5844;51.496;6.788;2023-02-17T08:26:14;11.90;99.90
11577;DHT22;5844;51.496;6.788;2023-02-17T08:28:40;12.00;99.90
11577;DHT22;5844;51.496;6.788;2023-02-17T08:31:05;12.00;99.90
11577;DHT22;5844;51.496;6.788;2023-02-17T08:33:38;12.00;99.90
11577;DHT22;5844;51.496;6.788;2023-02-17T08:36:05;12.00;99.90
11577;DHT22;5844;51.496;6.788;2023-02-17T08:38:33;12.00;99.90
11577;DHT22;5844;51.496;6.788;2023-02-17T08:40:58;12.10;99.90
11577;DHT22;5844;51.496;6.788;2023-02-17T08:43:24;12.10;99.90
11577;DHT22;5844;51.496;6.788;2023-02-17T08:45:49;12.10;99.90
11577;DHT22;5844;51.496;6.788;2023-02-17T08:48:15;12.10;99.90
11577;DHT22;5844;51.496;6.788;2023-02-17T08:50:41;12.10;99.90
11577;DHT22;5844;51.496;6.788;2023-02-17T08:53:06;12.20;99.90
11577;DHT22;5844;51.496;6.788;2023-02-17T08:55:34;12.20;99.90
11577;DHT22;5844;51.496;6.788;2023-02-17T08:57:59;12.30;99.90
11577;DHT22;5844;51.496;6.788;2023-02-17T09:00:25;12.30;99.90
11577;DHT22;5844;51.496;6.788;2023-02-17T09:02:51;12.30;99.90
11577;DHT22;5844;51.496;6.788;2023-02-17T09:05:17;12.40;99.90
11577;DHT22;5844;51.496;6.788;2023-02-17T09:07:43;12.40;99.90
11577;DHT22;5844;51.496;6.788;2023-02-17T09:10:10;12.50;99.90
11577;DHT22;5844;51.496;6.788;2023-02-17T09:12:36;12.50;99.90
11577;DHT22;5844;51.496;6.788;2023-02-17T09:15:01;12.60;99.90
11577;DHT22;5844;51.496;6.788;2023-02-17T09:17:27;12.60;99.90
11577;DHT22;5844;51.496;6.788;2023-02-17T09:19:53;12.70;99.90
11577;DHT22;5844;51.496;6.788;2023-02-17T09:22:19;12.80;99.90
11577;DHT22;5844;51.496;6.788;2023-02-17T09:24:45;12.80;99.90
11577;DHT22;5844;51.496;6.788;2023-02-17T09:27:11;12.80;99.90
11577;DHT22;5844;51.496;6.788;2023-02-17T09:29:37;12.90;99.90
11577;DHT22;5844;51.496;6.788;2023-02-17T09:32:07;12.90;99.90
11577;DHT22;5844;51.496;6.788;2023-02-17T09:34:37;12.90;99.90
11577;DHT22;5844;51.496;6.788;2023-02-17T09:37:08;12.90;99.90
11577;DHT22;5844;51.496;6.788;2023-02-17T09:39:34;13.00;99.90
11577;DHT22;5844;51.496;6.788;2023-02-17T09:42:00;13.00;99.90
11577;DHT22;5844;51.496;6.788;2023-02-17T09:44:35;13.10;99.90
11577;DHT22;5844;51.496;6.788;2023-02-17T09:47:09;13.20;99.90
11577;DHT22;5844;51.496;6.788;2023-02-17T09:49:43;13.30;99.90
11577;DHT22;5844;51.496;6.788;2023-02-17T09:52:26;13.30;99.90
11577;DHT22;5844;51.496;6.788;2023-02-17T09:55:16;13.40;99.90
11577;DHT22;5844;51.496;6.788;2023-02-17T09:57:54;13.50;99.90
11577;DHT22;5844;51.496;6.788;2023-02-17T10:00:25;13.40;99.90
11577;DHT22;5844;51.496;6.788;2023-02-17T10:03:03;13.40;99.90
11577;DHT22;5844;51.496;6.788;2023-02-17T10:05:39;13.40;99.90
11577;DHT22;5844;51.496;6.788;2023-02-17T10:08:20;13.40;99.90
11577;DHT22;5844;51.496;6.788;2023-02-17T10:10:52;13.40;99.90
11577;DHT22;5844;51.496;6.788;2023-02-17T10:13:21;13.40;99.90
11577;DHT22;5844;51.496;6.788;2023-02-17T10:15:51;13.30;99.90
11577;DHT22;5844;51.496;6.788;2023-02-17T10:18:29;13.40;99.90
11577;DHT22;5844;51.496;6.788;2023-02-17T10:21:17;13.40;99.90
11577;DHT22;5844;51.496;6.788;2023-02-17T10:23:46;13.40;99.90
11577;DHT22;5844;51.496;6.788;2023-02-17T10:28:57;13.40;99.90
11577;DHT22;5844;51.496;6.788;2023-02-17T10:36:47;13.20;99.90
11577;DHT22;5844;51.496;6.788;2023-02-17T10:42:05;13.30;99.90
11577;DHT22;5844;51.496;6.788;2023-02-17T10:44:35;13.30;99.90
11577;DHT22;5844;51.496;6.788;2023-02-17T10:47:02;13.40;99.90
11577;DHT22;5844;51.496;6.788;2023-02-17T10:49:38;13.50;99.90
11577;DHT22;5844;51.496;6.788;2023-02-17T10:52:16;13.60;99.90
11577;DHT22;5844;51.496;6.788;2023-02-17T10:55:06;13.70;99.90
11577;DHT22;5844;51.496;6.788;2023-02-17T10:57:39;13.80;99.90
11577;DHT22;5844;51.496;6.788;2023-02-17T11:00:10;13.90;99.90
11577;DHT22;5844;51.496;6.788;2023-02-17T11:02:42;13.80;99.90
11577;DHT22;5844;51.496;6.788;2023-02-17T11:05:23;13.80;99.90
11577;DHT22;5844;51.496;6.788;2023-02-17T11:08:05;13.70;99.90
11577;DHT22;5844;51.496;6.788;2023-02-17T11:10:34;13.70;99.90
11577;DHT22;5844;51.496;6.788;2023-02-17T11:13:01;13.80;99.90
11577;DHT22;5844;51.496;6.788;2023-02-17T11:15:35;13.80;99.90
11577;DHT22;5844;51.496;6.788;2023-02-17T11:18:09;13.90;99.90
11577;DHT22;5844;51.496;6.788;2023-02-17T11:20:36;13.90;99.90
11577;DHT22;5844;51.496;6.788;2023-02-17T11:23:22;14.00;99.90
11577;DHT22;5844;51.496;6.788;2023-02-17T11:26:06;14.20;99.90
11577;DHT22;5844;51.496;6.788;2023-02-17T11:28:32;14.50;99.90
11577;DHT22;5844;51.496;6.788;2023-02-17T11:30:59;14.70;99.90
11577;DHT22;5844;51.496;6.788;2023-02-17T11:33:38;14.90;99.90
11577;DHT22;5844;51.496;6.788;2023-02-17T11:36:06;15.10;99.90
11577;DHT22;5844;51.496;6.788;2023-02-17T11:38:44;15.10;99.90
11577;DHT22;5844;51.496;6.788;2023-02-17T11:41:09;15.20;99.90
11577;DHT22;5844;51.496;6.788;2023-02-17T11:43:36;15.10;99.90
11577;DHT22;5844;51.496;6.788;2023-02-17T11:49:06;15.10;99.90
11577;DHT22;5844;51.496;6.788;2023-02-17T11:57:14;14.40;99.90
11577;DHT22;5844;51.496;6.788;2023-02-17T12:08:04;14.40;99.90
11577;DHT22;5844;51.496;6.788;2023-02-17T12:13:52;14.60;99.90
11577;DHT22;5844;51.496;6.788;2023-02-17T12:19:27;14.70;99.90
11577;DHT22;5844;51.496;6.788;2023-02-17T12:22:16;14.70;99.90
11577;DHT22;5844;51.496;6.788;2023-02-17T12:30:25;14.90;99.30
11577;DHT22;5844;51.496;6.788;2023-02-17T12:36:03;14.90;67.00
11577;DHT22;5844;51.496;6.788;2023-02-17T12:38:33;14.80;1.00
11577;DHT22;5844;51.496;6.788;2023-02-17T12:41:23;14.70;99.90
11577;DHT22;5844;51.496;6.788;2023-02-17T12:46:43;14.60;1.00
11577;DHT22;5844;51.496;6.788;2023-02-17T12:49:15;14.60;99.90
11577;DHT22;5844;51.496;6.788;2023-02-17T12:51:48;14.70;1.00
11577;DHT22;5844;51.496;6.788;2023-02-17T12:54:30;14.70;1.00
11577;DHT22;5844;51.496;6.788;2023-02-17T13:02:02;14.70;1.00
11577;DHT22;5844;51.496;6.788;2023-02-17T13:04:29;14.70;1.00
11577;DHT22;5844;51.496;6.788;2023-02-17T13:07:03;14.80;1.00
11577;DHT22;5844;51.496;6.788;2023-02-17T13:09:33;14.80;1.00
11577;DHT22;5844;51.496;6.788;2023-02-17T13:12:08;14.80;1.00
11577;DHT22;5844;51.496;6.788;2023-02-17T13:14:45;14.80;1.00
11577;DHT22;5844;51.496;6.788;2023-02-17T13:17:29;14.70;1.00
11577;DHT22;5844;51.496;6.788;2023-02-17T13:22:41;14.80;1.00
11577;DHT22;5844;51.496;6.788;2023-02-17T13:25:29;14.80;1.00
11577;DHT22;5844;51.496;6.788;2023-02-17T13:27:55;14.90;1.00
11577;DHT22;5844;51.496;6.788;2023-02-17T13:35:40;15.10;1.00
11577;DHT22;5844;51.496;6.788;2023-02-17T13:38:08;15.10;1.00
11577;DHT22;5844;51.496;6.788;2023-02-17T13:40:39;15.00;1.00
11577;DHT22;5844;51.496;6.788;2023-02-17T13:43:17;14.90;1.00
11577;DHT22;5844;51.496;6.788;2023-02-17T13:46:00;14.80;99.90
11577;DHT22;5844;51.496;6.788;2023-02-17T13:51:04;14.70;1.00
11577;DHT22;5844;51.496;6.788;2023-02-17T13:53:35;14.70;1.00
11577;DHT22;5844;51.496;6.788;2023-02-17T13:56:10;14.60;1.00
11577;DHT22;5844;51.496;6.788;2023-02-17T13:58:40;14.60;1.00
11577;DHT22;5844;51.496;6.788;2023-02-17T14:01:15;14.60;1.00
11577;DHT22;5844;51.496;6.788;2023-02-17T14:03:46;14.50;99.90
11577;DHT22;5844;51.496;6.788;2023-02-17T14:06:40;14.50;99.90
11577;DHT22;5844;51.496;6.788;2023-02-17T14:09:34;14.50;99.90
11577;DHT22;5844;51.496;6.788;2023-02-17T14:12:03;14.40;99.90
11577;DHT22;5844;51.496;6.788;2023-02-17T14:14:35;14.50;99.90
11577;DHT22;5844;51.496;6.788;2023-02-17T14:17:06;14.50;99.90
11577;DHT22;5844;51.496;6.788;2023-02-17T14:19:47;14.50;99.90
11577;DHT22;5844;51.496;6.788;2023-02-17T14:22:30;14.40;99.90
11577;DHT22;5844;51.496;6.788;2023-02-17T14:27:24;14.30;1.00
11577;DHT22;5844;51.496;6.788;2023-02-17T14:29:50;14.30;1.00
11577;DHT22;5844;51.496;6.788;2023-02-17T14:32:29;14.20;1.00
11577;DHT22;5844;51.496;6.788;2023-02-17T14:35:20;14.30;1.00
11577;DHT22;5844;51.496;6.788;2023-02-17T14:37:46;14.00;1.00
11577;DHT22;5844;51.496;6.788;2023-02-17T14:40:20;13.90;1.00
11577;DHT22;5844;51.496;6.788;2023-02-17T14:42:47;13.70;26.40
11577;DHT22;5844;51.496;6.788;2023-02-17T14:45:14;13.50;99.90
11577;DHT22;5844;51.496;6.788;2023-02-17T14:47:43;13.40;99.90
11577;DHT22;5844;51.496;6.788;2023-02-17T14:50:10;13.20;99.90
11577;DHT22;5844;51.496;6.788;2023-02-17T14:52:41;13.10;99.90
11577;DHT22;5844;51.496;6.788;2023-02-17T14:55:29;13.10;99.90
11577;DHT22;5844;51.496;6.788;2023-02-17T14:57:55;13.00;99.90
11577;DHT22;5844;51.496;6.788;2023-02-17T15:00:21;12.90;99.90
11577;DHT22;5844;51.496;6.788;2023-02-17T15:02:47;12.80;99.90
11577;DHT22;5844;51.496;6.788;2023-02-17T15:05:13;12.80;99.90
11577;DHT22;5844;51.496;6.788;2023-02-17T15:07:38;12.80;99.90
11577;DHT22;5844;51.496;6.788;2023-02-17T15:10:20;12.80;99.90
11577;DHT22;5844;51.496;6.788;2023-02-17T15:12:48;12.80;99.90
11577;DHT22;5844;51.496;6.788;2023-02-17T15:15:14;12.70;99.90
11577;DHT22;5844;51.496;6.788;2023-02-17T15:17:40;12.70;99.90
11577;DHT22;5844;51.496;6.788;2023-02-17T15:20:06;12.60;99.90
11577;DHT22;5844;51.496;6.788;2023-02-17T15:22:34;12.60;99.90
11577;DHT22;5844;51.496;6.788;2023-02-17T15:25:00;12.60;99.90
11577;DHT22;5844;51.496;6.788;2023-02-17T15:27:26;12.70;99.90
11577;DHT22;5844;51.496;6.788;2023-02-17T15:29:51;12.80;99.90
11577;DHT22;5844;51.496;6.788;2023-02-17T15:32:17;12.80;99.90
11577;DHT22;5844;51.496;6.788;2023-02-17T15:34:43;12.80;99.90
11577;DHT22;5844;51.496;6.788;2023-02-17T15:37:09;12.90;99.90
11577;DHT22;5844;51.496;6.788;2023-02-17T15:39:35;13.00;99.90
11577;DHT22;5844;51.496;6.788;2023-02-17T15:42:05;12.90;99.90
11577;DHT22;5844;51.496;6.788;2023-02-17T15:44:44;13.00;99.90
11577;DHT22;5844;51.496;6.788;2023-02-17T15:47:16;13.00;99.90
11577;DHT22;5844;51.496;6.788;2023-02-17T15:49:42;13.10;99.90
11577;DHT22;5844;51.496;6.788;2023-02-17T15:52:12;13.00;99.90
11577;DHT22;5844;51.496;6.788;2023-02-17T15:54:39;12.90;99.90
11577;DHT22;5844;51.496;6.788;2023-02-17T15:57:06;12.90;99.90
11577;DHT22;5844;51.496;6.788;2023-02-17T15:59:35;12.90;99.90
11577;DHT22;5844;51.496;6.788;2023-02-17T16:02:04;13.00;99.90
11577;DHT22;5844;51.496;6.788;2023-02-17T16:04:36;13.00;99.90
11577;DHT22;5844;51.496;6.788;2023-02-17T16:07:01;13.10;99.90
11577;DHT22;5844;51.496;6.788;2023-02-17T16:09:27;13.10;99.90
11577;DHT22;5844;51.496;6.788;2023-02-17T16:11:53;13.10;99.90
11577;DHT22;5844;51.496;6.788;2023-02-17T16:14:32;13.10;99.90
11577;DHT22;5844;51.496;6.788;2023-02-17T16:16:58;13.20;99.90
11577;DHT22;5844;51.496;6.788;2023-02-17T16:19:24;13.20;99.90
11577;DHT22;5844;51.496;6.788;2023-02-17T16:21:49;13.20;99.90
11577;DHT22;5844;51.496;6.788;2023-02-17T16:24:15;13.20;99.90
11577;DHT22;5844;51.496;6.788;2023-02-17T16:26:41;13.20;99.90
11577;DHT22;5844;51.496;6.788;2023-02-17T16:29:16;13.20;99.90
11577;DHT22;5844;51.496;6.788;2023-02-17T16:31:43;13.10;99.90
11577;DHT22;5844;51.496;6.788;2023-02-17T16:34:14;13.10;99.90
11577;DHT22;5844;51.496;6.788;2023-02-17T16:36:40;13.10;99.90
11577;DHT22;5844;51.496;6.788;2023-02-17T16:39:12;13.10;99.90
11577;DHT22;5844;51.496;6.788;2023-02-17T16:41:39;12.40;99.90
11577;DHT22;5844;51.496;6.788;2023-02-17T16:44:05;13.20;99.90
11577;DHT22;5844;51.496;6.788;2023-02-17T16:46:33;13.10;99.90
11577;DHT22;5844;51.496;6.788;2023-02-17T16:49:02;13.10;99.90
11577;DHT22;5844;51.496;6.788;2023-02-17T16:51:28;13.10;99.90
11577;DHT22;5844;51.496;6.788;2023-02-17T16:53:53;13.10;99.90
11577;DHT22;5844;51.496;6.788;2023-02-17T16:56:27;13.10;99.90
11577;DHT22;5844;51.496;6.788;2023-02-17T16:58:54;13.10;99.90
11577;DHT22;5844;51.496;6.788;2023-02-17T17:01:20;13.00;99.90
11577;DHT22;5844;51.496;6.788;2023-02-17T17:03:46;13.00;99.90
11577;DHT22;5844;51.496;6.788;2023-02-17T17:06:25;13.00;99.90
11577;DHT22;5844;51.496;6.788;2023-02-17T17:08:51;13.10;99.90
11577;DHT22;5844;51.496;6.788;2023-02-17T17:11:22;13.00;99.90
11577;DHT22;5844;51.496;6.788;2023-02-17T17:13:49;13.00;99.90
11577;DHT22;5844;51.496;6.788;2023-02-17T17:16:24;12.90;99.90
11577;DHT22;5844;51.496;6.788;2023-02-17T17:18:51;12.90;99.90
11577;DHT22;5844;51.496;6.788;2023-02-17T17:21:18;12.90;99.90
11577;DHT22;5844;51.496;6.788;2023-02-17T17:23:44;12.90;99.90
11577;DHT22;5844;51.496;6.788;2023-02-17T17:26:35;12.90;99.90
11577;DHT22;5844;51.496;6.788;2023-02-17T17:29:04;12.90;99.90
11577;DHT22;5844;51.496;6.788;2023-02-17T17:31:31;12.90;99.90